Time;durP1;ratioP1;P1;durP2;ratioP2;P2;SDS_P1;SDS_P2;PMS_P1;PMS_P2;Temp;Humidity;BMP_temperature;BMP_pressure;BME280_temperature;BME280_humidity;BME280_pressure;Samples;Min_cycle;Max_cycle;Signal;HPM_P1;HPM_P2
2021/12/28 00:01:20;;;;;;;;;;;;;;;6.42;100.00;99483.06;5009697;28;19929;-71
2021/12/28 00:03:46;;;;;;;;;;;;;;;6.37;100.00;99477.00;5011990;28;19917;-70
2021/12/28 00:06:12;;;;;;;;;;;;;;;6.32;100.00;99470.94;5010352;28;19925;-70
2021/12/28 00:08:37;;;;;;;;;;;;;;;6.29;100.00;99474.28;5006057;28;19926;-68
2021/12/28 00:11:04;;;;;;;;;;;;;;;6.34;100.00;99479.50;5011850;28;19972;-70
2021/12/28 00:13:30;;;;;;;;;;;;;;;6.29;100.00;99481.06;5007815;28;20335;-69
2021/12/28 00:18:21;;;;;;;;;;;;;;;6.26;100.00;99476.75;5008123;28;19973;-70
2021/12/28 00:20:47;;;;;;;;;;;;;;;6.26;100.00;99476.75;5007156;28;20365;-70
2021/12/28 00:23:18;;;;;;;;;;;;;;;6.26;100.00;99481.00;5009327;28;19925;-69
2021/12/28 00:25:43;;;;;;;;;;;;;;;6.25;100.00;99477.59;5010946;28;19968;-70
2021/12/28 00:28:09;;;;;;;;;;;;;;;6.26;100.00;99479.31;5004040;28;19953;-70
2021/12/28 00:30:34;;;;;;;;;;;;;;;6.23;100.00;99474.13;5001673;28;19928;-71
2021/12/28 00:33:00;;;;;;;;;;;;;;;6.21;100.00;99480.91;5006846;28;19956;-71
2021/12/28 00:35:27;;;;;;;;;;;;;;;6.16;100.00;99470.56;5002201;28;19928;-70
2021/12/28 00:37:52;;;;;;;;;;;;;;;6.13;100.00;99462.88;5008474;28;19963;-73
2021/12/28 00:40:17;;;;;;;;;;;;;;;6.11;100.00;99471.28;5011224;28;19948;-70
2021/12/28 00:42:43;;;;;;;;;;;;;;;6.11;100.00;99461.09;5007218;28;19917;-71
2021/12/28 00:45:08;;;;;;;;;;;;;;;6.12;100.00;99455.16;5009762;28;20327;-70
2021/12/28 00:47:34;;;;;;;;;;;;;;;6.13;100.00;99459.44;5007045;28;20349;-70
2021/12/28 00:49:59;;;;;;;;;;;;;;;6.10;100.00;99456.81;5006851;28;19922;-71
2021/12/28 00:52:24;;;;;;;;;;;;;;;6.08;100.00;99450.81;5003420;28;19917;-70
2021/12/28 00:54:49;;;;;;;;;;;;;;;6.05;100.00;99450.72;5005034;28;20426;-70
2021/12/28 00:57:15;;;;;;;;;;;;;;;6.04;100.00;99449.88;5002152;28;19933;-71
2021/12/28 00:59:40;;;;;;;;;;;;;;;6.02;100.00;99453.22;5007465;28;19927;-70
2021/12/28 01:02:05;;;;;;;;;;;;;;;6.01;100.00;99448.97;5001005;28;19925;-70
2021/12/28 01:04:31;;;;;;;;;;;;;;;6.04;100.00;99446.47;5004412;28;19922;-70
2021/12/28 01:06:57;;;;;;;;;;;;;;;6.10;100.00;99438.94;5006747;28;19933;-72
2021/12/28 01:09:29;;;;;;;;;;;;;;;6.12;100.00;99444.94;5003409;28;20008;-70
2021/12/28 01:11:54;;;;;;;;;;;;;;;6.18;100.00;99435.72;5004172;28;19922;-70
2021/12/28 01:14:20;;;;;;;;;;;;;;;6.23;100.00;99433.28;5005790;28;19926;-69
2021/12/28 01:16:45;;;;;;;;;;;;;;;6.27;100.00;99429.13;5003622;28;19932;-70
2021/12/28 01:19:10;;;;;;;;;;;;;;;6.25;100.00;99430.75;5002985;28;19929;-70
2021/12/28 01:21:36;;;;;;;;;;;;;;;6.20;100.00;99430.69;5007085;28;19918;-70
2021/12/28 01:24:01;;;;;;;;;;;;;;;6.14;100.00;99436.50;5004150;28;19922;-72
2021/12/28 01:26:26;;;;;;;;;;;;;;;6.06;100.00;99430.34;5006640;28;19961;-71
2021/12/28 01:28:51;;;;;;;;;;;;;;;6.03;100.00;99437.09;5002416;28;20274;-70
2021/12/28 01:31:17;;;;;;;;;;;;;;;5.97;100.00;99430.16;5002276;28;19956;-70
2021/12/28 01:33:42;;;;;;;;;;;;;;;5.89;100.00;99432.50;5003704;28;20012;-70
2021/12/28 01:36:07;;;;;;;;;;;;;;;5.89;100.00;99435.03;5004763;28;19927;-70
2021/12/28 01:38:32;;;;;;;;;;;;;;;5.86;100.00;99427.31;5006157;28;19929;-70
2021/12/28 01:40:58;;;;;;;;;;;;;;;5.82;100.00;99430.59;5003354;28;19995;-71
2021/12/28 01:43:24;;;;;;;;;;;;;;;5.79;100.00;99429.69;5004179;28;19925;-70
2021/12/28 01:45:53;;;;;;;;;;;;;;;5.74;100.00;99426.16;5001818;28;19949;-69
2021/12/28 01:48:23;;;;;;;;;;;;;;;5.72;100.00;99426.13;5003525;28;19926;-70
2021/12/28 01:50:49;;;;;;;;;;;;;;;5.70;100.00;99427.75;5001994;28;19918;-70
2021/12/28 01:53:15;;;;;;;;;;;;;;;5.69;100.00;99435.38;5001512;28;19933;-70
2021/12/28 01:55:42;;;;;;;;;;;;;;;5.73;100.00;99432.06;5003176;28;19925;-70
2021/12/28 01:58:07;;;;;;;;;;;;;;;5.76;100.00;99427.91;5005396;28;19917;-71
2021/12/28 02:00:33;;;;;;;;;;;;;;;5.76;100.00;99433.00;5000427;28;19928;-71
2021/12/28 02:02:59;;;;;;;;;;;;;;;5.72;100.00;99426.13;5005940;28;20312;-71
2021/12/28 02:05:24;;;;;;;;;;;;;;;5.72;100.00;99425.25;5002605;28;20020;-71
2021/12/28 02:07:50;;;;;;;;;;;;;;;5.71;100.00;99429.50;5001786;28;19926;-69
2021/12/28 02:10:16;;;;;;;;;;;;;;;5.68;100.00;99424.31;5002823;28;19983;-70
2021/12/28 02:12:42;;;;;;;;;;;;;;;5.68;100.00;99424.31;5006257;28;19918;-70
2021/12/28 02:15:12;;;;;;;;;;;;;;;5.71;100.00;99419.28;5002331;28;19925;-71
2021/12/28 02:17:38;;;;;;;;;;;;;;;5.74;100.00;99421.91;5002567;28;20254;-72
2021/12/28 02:20:08;;;;;;;;;;;;;;;5.75;100.00;99410.88;4998454;28;19980;-69
2021/12/28 02:22:33;;;;;;;;;;;;;;;5.78;100.00;99420.31;5004570;28;19921;-71
2021/12/28 02:24:59;;;;;;;;;;;;;;;5.77;100.00;99414.34;5005869;28;19988;-72
2021/12/28 02:27:26;;;;;;;;;;;;;;;5.78;100.00;99415.22;5000872;28;19963;-71
2021/12/28 02:29:52;;;;;;;;;;;;;;;5.80;100.00;99416.09;5003450;28;20414;-71
2021/12/28 02:32:17;;;;;;;;;;;;;;;5.83;100.00;99416.19;5002824;28;19921;-70
2021/12/28 02:34:45;;;;;;;;;;;;;;;5.84;100.00;99415.34;5002937;28;20292;-71
2021/12/28 02:37:10;;;;;;;;;;;;;;;5.88;100.00;99412.03;5002773;28;20063;-71
2021/12/28 02:39:35;;;;;;;;;;;;;;;5.89;100.00;99414.63;5001800;28;20057;-70
2021/12/28 02:42:00;;;;;;;;;;;;;;;5.90;100.00;99408.69;5001105;28;19925;-71
2021/12/28 02:44:26;;;;;;;;;;;;;;;5.90;100.00;99412.94;5001935;28;19929;-70
2021/12/28 02:46:51;;;;;;;;;;;;;;;5.91;100.00;99405.34;5001388;28;20312;-71
2021/12/28 02:49:16;;;;;;;;;;;;;;;5.89;100.00;99396.78;5003424;28;19975;-70
2021/12/28 02:51:41;;;;;;;;;;;;;;;5.93;100.00;99391.75;5001638;28;20387;-71
2021/12/28 02:54:07;;;;;;;;;;;;;;;5.98;100.00;99385.94;4998997;28;20423;-72
2021/12/28 02:56:32;;;;;;;;;;;;;;;5.99;100.00;99381.69;4997627;28;19934;-72
2021/12/28 02:58:59;;;;;;;;;;;;;;;5.99;100.00;99374.03;5004154;28;19917;-70
2021/12/28 03:01:26;;;;;;;;;;;;;;;5.98;100.00;99377.44;5002123;28;19917;-70
2021/12/28 03:04:03;;;;;;;;;;;;;;;6.01;100.00;99382.63;5004128;28;20355;-69
2021/12/28 03:06:29;;;;;;;;;;;;;;;6.02;100.00;99384.34;4998607;28;19933;-70
2021/12/28 03:08:55;;;;;;;;;;;;;;;6.04;100.00;99369.91;4997324;28;19925;-70
2021/12/28 03:11:21;;;;;;;;;;;;;;;6.09;100.00;99375.97;4999549;28;19937;-70
2021/12/28 03:13:48;;;;;;;;;;;;;;;6.12;100.00;99370.94;5000718;28;20500;-71
2021/12/28 03:16:13;;;;;;;;;;;;;;;6.10;100.00;99370.91;5005716;28;19921;-72
2021/12/28 03:18:39;;;;;;;;;;;;;;;6.13;100.00;99368.44;5001671;28;20465;-71
2021/12/28 03:21:06;;;;;;;;;;;;;;;6.14;100.00;99361.63;4998867;28;19929;-71
2021/12/28 03:23:31;;;;;;;;;;;;;;;6.13;100.00;99359.91;5001853;28;19921;-72
2021/12/28 03:25:57;;;;;;;;;;;;;;;6.13;100.00;99355.69;4997597;28;19952;-72
2021/12/28 03:28:27;;;;;;;;;;;;;;;6.14;100.00;99348.88;5003765;28;19929;-71
2021/12/28 03:30:54;;;;;;;;;;;;;;;6.11;100.00;99357.31;5005293;28;19967;-71
2021/12/28 03:33:20;;;;;;;;;;;;;;;6.09;100.00;99353.00;5002215;28;19917;-69
2021/12/28 03:35:45;;;;;;;;;;;;;;;6.03;100.00;99342.66;5003715;28;19976;-73
2021/12/28 03:38:11;;;;;;;;;;;;;;;6.03;100.00;99345.22;4998489;28;19933;-71
2021/12/28 03:40:36;;;;;;;;;;;;;;;6.04;100.00;99337.59;5003444;28;19921;-71
2021/12/28 03:43:01;;;;;;;;;;;;;;;6.08;100.00;99344.50;5002984;28;20015;-70
2021/12/28 03:45:27;;;;;;;;;;;;;;;6.14;100.00;99344.63;4999362;28;19922;-70
2021/12/28 03:47:52;;;;;;;;;;;;;;;6.22;100.00;99338.81;4999022;28;19921;-70
2021/12/28 03:50:19;;;;;;;;;;;;;;;6.25;100.00;99326.09;5003721;28;19930;-69
2021/12/28 03:52:44;;;;;;;;;;;;;;;6.32;100.00;99327.97;4996598;28;19933;-69
2021/12/28 03:55:10;;;;;;;;;;;;;;;6.39;100.00;99324.72;5002984;28;20312;-70
2021/12/28 03:57:35;;;;;;;;;;;;;;;6.45;100.00;99318.03;4998248;28;20308;-69
2021/12/28 04:00:01;;;;;;;;;;;;;;;6.47;100.00;99323.16;5001464;28;19929;-71
2021/12/28 04:02:26;;;;;;;;;;;;;;;6.54;100.00;99319.91;4999036;28;19918;-70
2021/12/28 04:04:51;;;;;;;;;;;;;;;6.56;100.00;99320.81;4997507;28;19924;-70
2021/12/28 04:07:18;;;;;;;;;;;;;;;6.58;100.00;99329.34;5000550;28;20060;-70
2021/12/28 04:12:15;;;;;;;;;;;;;;;6.62;100.00;99320.94;4997358;28;20288;-69
2021/12/28 04:14:40;;;;;;;;;;;;;;;6.66;100.00;99324.38;5001841;28;20375;-69
2021/12/28 04:17:05;;;;;;;;;;;;;;;6.69;100.00;99322.75;4999701;28;19937;-70
2021/12/28 04:19:31;;;;;;;;;;;;;;;6.72;100.00;99314.28;4998542;28;19926;-70
2021/12/28 04:21:56;;;;;;;;;;;;;;;6.72;100.00;99316.84;5003020;28;19928;-70
2021/12/28 04:24:21;;;;;;;;;;;;;;;6.73;100.00;99318.56;5000260;28;19922;-69
2021/12/28 04:26:47;;;;;;;;;;;;;;;6.74;100.00;99316.88;4999278;28;20361;-70
2021/12/28 04:29:12;;;;;;;;;;;;;;;6.76;100.00;99318.63;5003002;28;19929;-69
2021/12/28 04:31:37;;;;;;;;;;;;;;;6.75;100.00;99313.50;5003079;28;19925;-70
2021/12/28 04:34:02;;;;;;;;;;;;;;;6.77;100.00;99314.38;5005943;28;20357;-69
2021/12/28 04:36:28;;;;;;;;;;;;;;;6.79;100.00;99318.66;5007586;28;19925;-69
2021/12/28 04:38:53;;;;;;;;;;;;;;;6.82;100.00;99316.19;5003968;28;19924;-70
2021/12/28 04:41:19;;;;;;;;;;;;;;;6.83;100.00;99319.59;5003205;28;20344;-69
2021/12/28 04:43:46;;;;;;;;;;;;;;;6.83;100.00;99330.66;5008941;28;19928;-70
2021/12/28 04:46:11;;;;;;;;;;;;;;;6.87;100.00;99323.94;5005270;28;19930;-70
2021/12/28 04:48:36;;;;;;;;;;;;;;;6.90;100.00;99326.53;5004023;28;19921;-70
2021/12/28 04:51:03;;;;;;;;;;;;;;;6.88;100.00;99321.41;5004131;28;20349;-69
2021/12/28 04:53:28;;;;;;;;;;;;;;;6.93;100.00;99324.03;5005087;28;19924;-71
2021/12/28 04:55:53;;;;;;;;;;;;;;;6.94;100.00;99324.06;5003537;28;19930;-71
2021/12/28 04:58:18;;;;;;;;;;;;;;;6.97;100.00;99329.22;5002475;28;20392;-72
2021/12/28 05:00:45;;;;;;;;;;;;;;;6.97;100.00;99321.56;5004278;28;20019;-70
2021/12/28 05:03:11;;;;;;;;;;;;;;;7.05;100.00;99324.25;5001952;28;20337;-72
2021/12/28 05:05:38;;;;;;;;;;;;;;;7.03;100.00;99325.91;5004826;28;20403;-71
2021/12/28 05:08:04;;;;;;;;;;;;;;;7.08;100.00;99321.75;5005591;28;19921;-70
2021/12/28 05:10:32;;;;;;;;;;;;;;;7.10;100.00;99308.97;5005822;28;20386;-72
2021/12/28 05:12:58;;;;;;;;;;;;;;;7.11;100.00;99313.28;5003446;28;20385;-71
2021/12/28 05:15:23;;;;;;;;;;;;;;;7.12;100.00;99303.09;5006508;28;19980;-70
2021/12/28 05:17:48;;;;;;;;;;;;;;;7.18;100.00;99304.88;4999790;28;19930;-71
2021/12/28 05:20:14;;;;;;;;;;;;;;;7.17;100.00;99298.91;5005367;28;19972;-72
2021/12/28 05:22:39;;;;;;;;;;;;;;;7.19;100.00;99296.38;5003449;28;19918;-70
2021/12/28 05:25:05;;;;;;;;;;;;;;;7.25;100.00;99292.22;5000707;28;19925;-70
2021/12/28 05:27:30;;;;;;;;;;;;;;;7.24;100.00;99294.75;4999868;28;19936;-70
2021/12/28 05:29:55;;;;;;;;;;;;;;;7.26;100.00;99298.19;5003555;28;19922;-71
2021/12/28 05:32:21;;;;;;;;;;;;;;;7.30;100.00;99288.88;5005408;28;20432;-70
2021/12/28 05:34:46;;;;;;;;;;;;;;;7.28;100.00;99285.41;5003510;28;19925;-70
2021/12/28 05:37:11;;;;;;;;;;;;;;;7.29;100.00;99287.16;5002164;28;20420;-70
2021/12/28 05:39:37;;;;;;;;;;;;;;;7.26;100.00;99282.84;5005406;28;19922;-70
2021/12/28 05:42:03;;;;;;;;;;;;;;;7.29;100.00;99282.91;5006047;28;19917;-69
2021/12/28 05:44:28;;;;;;;;;;;;;;;7.32;100.00;99277.84;5003059;28;19969;-70
2021/12/28 05:46:54;;;;;;;;;;;;;;;7.36;100.00;99265.97;5005255;28;19960;-69
2021/12/28 05:49:20;;;;;;;;;;;;;;;7.34;100.00;99265.97;5001401;28;20328;-69
2021/12/28 05:51:45;;;;;;;;;;;;;;;7.33;100.00;99271.03;5000566;28;19921;-69
2021/12/28 05:54:12;;;;;;;;;;;;;;;7.35;100.00;99266.81;5005557;28;20162;-69
2021/12/28 05:56:37;;;;;;;;;;;;;;;7.35;100.00;99262.56;5000430;28;19930;-69
2021/12/28 05:59:02;;;;;;;;;;;;;;;7.37;100.00;99253.19;5003860;28;19975;-70
2021/12/28 06:01:28;;;;;;;;;;;;;;;7.38;100.00;99265.13;5004884;28;19917;-71
2021/12/28 06:03:53;;;;;;;;;;;;;;;7.34;100.00;99257.41;5002787;28;19925;-70
2021/12/28 06:06:18;;;;;;;;;;;;;;;7.36;100.00;99259.16;5000359;28;19925;-70
2021/12/28 06:08:44;;;;;;;;;;;;;;;7.44;100.00;99256.69;5001693;28;20388;-70
2021/12/28 06:11:12;;;;;;;;;;;;;;;7.43;100.00;99260.97;5005182;28;19929;-70
2021/12/28 06:13:40;;;;;;;;;;;;;;;7.44;100.00;99262.69;5003162;28;19918;-70
2021/12/28 06:16:05;;;;;;;;;;;;;;;7.45;100.00;99258.41;5003172;28;20020;-71
2021/12/28 06:18:30;;;;;;;;;;;;;;;7.60;100.00;99253.53;5002155;28;20360;-70
2021/12/28 06:20:56;;;;;;;;;;;;;;;7.53;100.00;99246.63;5001236;28;19924;-70
2021/12/28 06:23:21;;;;;;;;;;;;;;;7.56;100.00;99251.78;5003209;28;19952;-70
2021/12/28 06:25:46;;;;;;;;;;;;;;;7.55;100.00;99244.09;4997768;28;19925;-71
2021/12/28 06:28:11;;;;;;;;;;;;;;;7.56;100.00;99235.56;5000723;28;19925;-71
2021/12/28 06:30:37;;;;;;;;;;;;;;;7.59;100.00;99233.06;5000532;28;19922;-70
2021/12/28 06:33:03;;;;;;;;;;;;;;;7.56;100.00;99235.56;5001539;28;19928;-71
2021/12/28 06:35:28;;;;;;;;;;;;;;;7.65;100.00;99234.00;5001276;28;19933;-69
2021/12/28 06:37:54;;;;;;;;;;;;;;;7.56;100.00;99233.88;4999874;28;20368;-71
2021/12/28 06:40:19;;;;;;;;;;;;;;;7.54;100.00;99227.88;5001096;28;19925;-70
2021/12/28 06:42:44;;;;;;;;;;;;;;;7.56;100.00;99220.22;5001711;28;19922;-70
2021/12/28 06:45:10;;;;;;;;;;;;;;;7.57;100.00;99224.50;5002772;28;19925;-71
2021/12/28 06:47:35;;;;;;;;;;;;;;;7.51;100.00;99221.00;5003579;28;19921;-70
2021/12/28 06:50:00;;;;;;;;;;;;;;;7.57;100.00;99216.81;4997737;28;19936;-70
2021/12/28 06:52:26;;;;;;;;;;;;;;;7.52;100.00;99230.41;5001011;28;19925;-70
2021/12/28 06:54:51;;;;;;;;;;;;;;;7.49;100.00;99221.84;5001107;28;19929;-70
2021/12/28 06:57:16;;;;;;;;;;;;;;;7.48;100.00;99228.66;4999146;28;20432;-70
2021/12/28 06:59:43;;;;;;;;;;;;;;;7.57;100.00;99227.91;5001686;28;20281;-69
2021/12/28 07:02:12;;;;;;;;;;;;;;;7.57;100.00;99222.78;4996926;28;19924;-68
2021/12/28 07:04:38;;;;;;;;;;;;;;;7.51;100.00;99218.44;5000844;28;20364;-69
2021/12/28 07:07:04;;;;;;;;;;;;;;;7.51;100.00;99215.03;5000045;28;19930;-72
2021/12/28 07:09:29;;;;;;;;;;;;;;;7.52;100.00;99209.97;4999791;28;19972;-69
2021/12/28 07:11:54;;;;;;;;;;;;;;;7.52;100.00;99225.31;5002098;28;20019;-69
2021/12/28 07:14:19;;;;;;;;;;;;;;;7.55;100.00;99216.81;5001678;28;19922;-69
2021/12/28 07:16:45;;;;;;;;;;;;;;;7.52;100.00;99216.75;5000040;28;19940;-69
2021/12/28 07:19:11;;;;;;;;;;;;;;;7.56;100.00;99215.09;5004284;28;19943;-71
2021/12/28 07:21:37;;;;;;;;;;;;;;;7.66;100.00;99216.97;4998891;28;19936;-70
2021/12/28 07:24:03;;;;;;;;;;;;;;;7.58;100.00;99216.81;4999114;28;20000;-70
2021/12/28 07:26:28;;;;;;;;;;;;;;;7.63;100.00;99212.63;4999097;28;20304;-70
2021/12/28 07:28:54;;;;;;;;;;;;;;;7.71;100.00;99212.75;5003472;28;19925;-70
2021/12/28 07:31:19;;;;;;;;;;;;;;;7.64;100.00;99203.25;5002939;28;20343;-69
2021/12/28 07:33:44;;;;;;;;;;;;;;;7.71;100.00;99223.84;5003728;28;19929;-69
2021/12/28 07:36:10;;;;;;;;;;;;;;;7.70;100.00;99217.00;5003653;28;21307;-69
2021/12/28 07:38:35;;;;;;;;;;;;;;;7.71;100.00;99212.75;4999594;28;19932;-69
2021/12/28 07:41:00;;;;;;;;;;;;;;;7.69;100.00;99207.59;5000693;28;19925;-69
2021/12/28 07:43:26;;;;;;;;;;;;;;;7.72;100.00;99206.81;5001883;28;19929;-69
2021/12/28 07:45:51;;;;;;;;;;;;;;;7.71;100.00;99215.31;5001722;28;19929;-70
2021/12/28 07:48:16;;;;;;;;;;;;;;;7.74;100.00;99205.97;4999533;28;20051;-71
2021/12/28 07:50:42;;;;;;;;;;;;;;;7.78;100.00;99204.31;4998165;28;19974;-71
2021/12/28 07:53:07;;;;;;;;;;;;;;;7.80;100.00;99202.63;5000772;28;20321;-70
2021/12/28 07:55:33;;;;;;;;;;;;;;;7.89;100.00;99210.44;4999826;28;20517;-69
2021/12/28 07:57:58;;;;;;;;;;;;;;;7.84;100.00;99214.63;5003051;28;19944;-71
2021/12/28 08:00:24;;;;;;;;;;;;;;;7.85;100.00;99211.22;5004409;28;19926;-71
2021/12/28 08:02:49;;;;;;;;;;;;;;;7.88;100.00;99208.69;5007991;28;19968;-71
2021/12/28 08:05:15;;;;;;;;;;;;;;;7.89;100.00;99207.03;5003078;28;19952;-72
2021/12/28 08:07:40;;;;;;;;;;;;;;;7.98;100.00;99199.44;5003996;28;20012;-72
2021/12/28 08:10:06;;;;;;;;;;;;;;;7.92;100.00;99195.09;5001546;28;20400;-73
2021/12/28 08:12:32;;;;;;;;;;;;;;;7.97;100.00;99196.03;5007898;28;19929;-71
2021/12/28 08:14:57;;;;;;;;;;;;;;;7.97;100.00;99201.13;5006119;28;19926;-70
2021/12/28 08:17:23;;;;;;;;;;;;;;;8.07;100.00;99199.56;5006388;28;19921;-70
2021/12/28 08:19:48;;;;;;;;;;;;;;;8.01;100.00;99199.50;5006388;28;19925;-70
2021/12/28 08:22:13;;;;;;;;;;;;;;;8.09;100.00;99194.44;5004514;28;19929;-72
2021/12/28 08:24:38;;;;;;;;;;;;;;;8.17;100.00;99193.69;5006311;28;19968;-71
2021/12/28 08:27:04;;;;;;;;;;;;;;;8.10;100.00;99203.84;5004514;28;19921;-70
2021/12/28 08:29:29;;;;;;;;;;;;;;;8.16;100.00;99201.34;5005594;28;19995;-68
2021/12/28 08:31:54;;;;;;;;;;;;;;;8.16;100.00;99193.66;5006620;28;20028;-69
2021/12/28 08:34:20;;;;;;;;;;;;;;;8.25;100.00;99188.63;5004394;28;20341;-69
2021/12/28 08:36:45;;;;;;;;;;;;;;;8.15;100.00;99190.25;5004590;28;20308;-69
2021/12/28 08:39:10;;;;;;;;;;;;;;;8.20;100.00;99182.63;5006697;28;20011;-70
2021/12/28 08:41:35;;;;;;;;;;;;;;;8.20;100.00;99175.81;5003396;28;20349;-69
2021/12/28 08:44:01;;;;;;;;;;;;;;;8.27;100.00;99181.84;5006187;28;19921;-69
2021/12/28 08:46:26;;;;;;;;;;;;;;;8.29;100.00;99175.88;5001200;28;19969;-70
2021/12/28 08:48:52;;;;;;;;;;;;;;;8.35;100.00;99175.09;5005824;28;19933;-70
2021/12/28 08:51:17;;;;;;;;;;;;;;;8.31;100.00;99174.22;5003237;28;19926;-72
2021/12/28 08:53:43;;;;;;;;;;;;;;;8.37;100.00;99180.25;5008508;28;20063;-71
2021/12/28 08:56:08;;;;;;;;;;;;;;;8.41;100.00;99182.00;5011844;28;19971;-70
2021/12/28 08:58:33;;;;;;;;;;;;;;;8.46;100.00;99176.09;5011702;28;19925;-70
2021/12/28 09:00:58;;;;;;;;;;;;;;;8.60;100.00;99176.22;5006566;28;19932;-71
2021/12/28 09:03:24;;;;;;;;;;;;;;;8.44;100.00;99175.22;5009556;28;19922;-71
2021/12/28 09:05:49;;;;;;;;;;;;;;;8.43;100.00;99173.47;5007475;28;19925;-70
2021/12/28 09:08:17;;;;;;;;;;;;;;;8.56;100.00;99169.38;5009920;28;19940;-72
2021/12/28 09:10:42;;;;;;;;;;;;;;;8.55;100.00;99160.81;5010853;28;20316;-70
2021/12/28 09:13:09;;;;;;;;;;;;;;;8.55;100.00;99168.50;5009684;28;19921;-70
2021/12/28 09:15:35;;;;;;;;;;;;;;;8.59;100.00;99159.97;5008754;28;19929;-70
2021/12/28 09:18:00;;;;;;;;;;;;;;;8.68;100.00;99155.81;5009833;28;20392;-70
2021/12/28 09:20:26;;;;;;;;;;;;;;;8.58;100.00;99167.66;5010229;28;19963;-71
2021/12/28 09:22:53;;;;;;;;;;;;;;;8.55;100.00;99165.06;5010164;28;19940;-71
2021/12/28 09:25:18;;;;;;;;;;;;;;;8.53;100.00;99162.50;5010701;28;19929;-72
2021/12/28 09:27:44;;;;;;;;;;;;;;;8.63;100.00;99152.34;5010325;28;19967;-69
2021/12/28 09:30:10;;;;;;;;;;;;;;;8.65;100.00;99150.63;5010235;28;19975;-70
2021/12/28 09:32:35;;;;;;;;;;;;;;;8.77;100.00;99150.72;5006569;28;20411;-70
2021/12/28 09:35:00;;;;;;;;;;;;;;;8.77;100.00;99137.91;5011245;28;20063;-69
2021/12/28 09:37:26;;;;;;;;;;;;;;;8.79;100.00;99147.31;5009166;28;20484;-69
2021/12/28 09:39:51;;;;;;;;;;;;;;;8.95;100.00;99144.88;5011123;28;20356;-70
2021/12/28 09:42:17;;;;;;;;;;;;;;;8.92;100.00;99140.63;5010005;28;19921;-71
2021/12/28 09:44:43;;;;;;;;;;;;;;;8.89;100.00;99132.88;5009422;28;19925;-70
2021/12/28 09:47:08;;;;;;;;;;;;;;;8.99;100.00;99139.81;5007508;28;19922;-70
2021/12/28 09:49:34;;;;;;;;;;;;;;;8.94;100.00;99138.91;5009550;28;19932;-71
2021/12/28 09:52:01;;;;;;;;;;;;;;;8.93;100.00;99121.81;5010627;28;19972;-71
2021/12/28 09:54:27;;;;;;;;;;;;;;;9.03;100.00;99133.81;5007875;28;20384;-70
2021/12/28 09:56:55;;;;;;;;;;;;;;;9.07;100.00;99127.03;5010642;28;19959;-71
2021/12/28 09:59:21;;;;;;;;;;;;;;;8.90;100.00;99132.03;5008772;28;19925;-70
2021/12/28 10:01:46;;;;;;;;;;;;;;;8.89;100.00;99129.47;5010747;28;19929;-70
2021/12/28 10:04:11;;;;;;;;;;;;;;;8.98;100.00;99122.72;5008918;28;19929;-69
2021/12/28 10:06:37;;;;;;;;;;;;;;;8.99;100.00;99121.00;5007038;28;19925;-70
2021/12/28 10:09:05;;;;;;;;;;;;;;;9.08;100.00;99105.66;5007870;28;20024;-69
2021/12/28 10:11:31;;;;;;;;;;;;;;;9.07;100.00;99099.69;5008456;28;19921;-69
2021/12/28 10:14:09;;;;;;;;;;;;;;;9.20;100.00;99104.88;5010383;28;19964;-69
2021/12/28 10:16:43;;;;;;;;;;;;;;;9.22;100.00;99092.91;5007238;28;19976;-70
2021/12/28 10:19:27;;;;;;;;;;;;;;;9.14;100.00;99100.56;5008450;28;19917;-71
2021/12/28 10:21:52;;;;;;;;;;;;;;;9.13;100.00;99092.03;5006707;28;19926;-70
2021/12/28 10:24:30;;;;;;;;;;;;;;;9.15;100.00;99086.91;5010175;28;20067;-71
2021/12/28 10:27:15;;;;;;;;;;;;;;;9.17;100.00;99077.53;5007686;28;19925;-70
2021/12/28 10:29:40;;;;;;;;;;;;;;;9.21;100.00;99078.38;5007495;28;20276;-70
2021/12/28 10:32:18;;;;;;;;;;;;;;;9.13;100.00;99071.50;5008498;28;20012;-69
2021/12/28 10:34:48;;;;;;;;;;;;;;;9.24;100.00;99065.59;5006459;28;19933;-70
2021/12/28 10:37:14;;;;;;;;;;;;;;;9.28;100.00;99060.47;5007695;28;20303;-70
2021/12/28 10:39:47;;;;;;;;;;;;;;;9.27;100.00;99053.63;5007421;28;19922;-70
2021/12/28 10:42:30;;;;;;;;;;;;;;;9.37;100.00;99052.81;5008294;28;20369;-72
2021/12/28 10:44:56;;;;;;;;;;;;;;;9.43;100.00;99048.56;5008669;28;20439;-71
2021/12/28 10:47:26;;;;;;;;;;;;;;;9.37;100.00;99050.25;5009718;28;20054;-72
2021/12/28 10:49:51;;;;;;;;;;;;;;;9.44;100.00;99050.25;5009416;28;19918;-71
2021/12/28 10:52:25;;;;;;;;;;;;;;;9.42;100.00;99036.59;5007082;28;20315;-70
2021/12/28 10:54:50;;;;;;;;;;;;;;;9.38;100.00;99051.94;5009616;28;19930;-72
2021/12/28 10:57:16;;;;;;;;;;;;;;;9.47;100.00;99058.84;5009254;28;19979;-71
2021/12/28 10:59:41;;;;;;;;;;;;;;;9.35;100.00;99045.97;5009559;28;19926;-72
2021/12/28 11:02:06;;;;;;;;;;;;;;;9.44;100.00;99051.13;5008971;28;19917;-73
2021/12/28 11:04:36;;;;;;;;;;;;;;;9.41;100.00;99043.44;5009243;28;19932;-75
2021/12/28 11:07:06;;;;;;;;;;;;;;;9.50;100.00;99032.34;5005368;28;20004;-74
2021/12/28 11:09:31;;;;;;;;;;;;;;;9.49;100.00;99034.03;5008062;28;19965;-72
2021/12/28 11:11:56;;;;;;;;;;;;;;;9.42;100.00;99031.47;5008814;28;20018;-74
2021/12/28 11:14:26;;;;;;;;;;;;;;;9.40;100.00;99018.59;5004285;28;20373;-74
2021/12/28 11:16:59;;;;;;;;;;;;;;;9.37;100.00;99013.47;5007124;28;19921;-75
2021/12/28 11:19:25;;;;;;;;;;;;;;;9.42;100.00;99005.81;5005520;28;19976;-75
2021/12/28 11:21:52;;;;;;;;;;;;;;;9.35;100.00;99008.34;5008075;28;19921;-74
2021/12/28 11:24:17;;;;;;;;;;;;;;;9.28;100.00;99004.06;5008491;28;20007;-75
2021/12/28 11:26:42;;;;;;;;;;;;;;;9.29;100.00;98998.06;5008045;28;20016;-75
2021/12/28 11:29:13;;;;;;;;;;;;;;;9.28;100.00;99004.06;5009108;28;20365;-73
2021/12/28 11:31:41;;;;;;;;;;;;;;;9.32;100.00;98995.50;5005621;28;19924;-77
2021/12/28 11:34:06;;;;;;;;;;;;;;;9.30;100.00;98993.78;5008283;28;20015;-74
2021/12/28 11:36:33;;;;;;;;;;;;;;;9.23;100.00;98986.94;5006982;28;20372;-74
2021/12/28 11:39:00;;;;;;;;;;;;;;;9.30;100.00;98986.94;5007825;28;20004;-74
2021/12/28 11:41:26;;;;;;;;;;;;;;;9.35;100.00;98974.16;5008629;28;19929;-74
2021/12/28 11:43:53;;;;;;;;;;;;;;;9.40;100.00;98970.75;5007216;28;19964;-74
2021/12/28 11:46:18;;;;;;;;;;;;;;;9.35;100.00;98967.31;5006525;28;19917;-74
2021/12/28 11:48:44;;;;;;;;;;;;;;;9.24;100.00;98965.56;5010051;28;19972;-74
2021/12/28 11:51:10;;;;;;;;;;;;;;;9.44;100.00;98958.75;5009863;28;20351;-74
2021/12/28 11:53:37;;;;;;;;;;;;;;;9.34;100.00;98982.66;5008586;28;19924;-74
2021/12/28 11:56:04;;;;;;;;;;;;;;;9.21;100.00;98992.03;5008333;28;20012;-75
2021/12/28 11:58:48;;;;;;;;;;;;;;;9.22;100.00;98991.22;5004926;28;19924;-74
2021/12/28 12:01:32;;;;;;;;;;;;;;;9.23;100.00;98998.06;5008082;28;20438;-74
2021/12/28 12:03:57;;;;;;;;;;;;;;;9.00;100.00;98990.25;5006458;28;19918;-75
2021/12/28 12:06:42;;;;;;;;;;;;;;;8.86;100.00;98995.34;5009756;28;20398;-74
2021/12/28 12:09:08;;;;;;;;;;;;;;;8.81;100.00;98988.47;5009037;28;19948;-74
2021/12/28 12:11:33;;;;;;;;;;;;;;;8.70;100.00;99002.91;5007241;28;19925;-73
2021/12/28 12:13:58;;;;;;;;;;;;;;;8.62;100.00;98999.47;5006967;28;19930;-72
2021/12/28 12:16:23;;;;;;;;;;;;;;;8.59;100.00;98990.03;5008345;28;20028;-73
2021/12/28 12:18:49;;;;;;;;;;;;;;;8.64;100.00;98983.25;5003218;28;19921;-76
2021/12/28 12:21:18;;;;;;;;;;;;;;;8.54;100.00;98984.88;5008022;28;19924;-73
2021/12/28 12:23:46;;;;;;;;;;;;;;;8.62;100.00;98995.19;5009737;28;20060;-73
2021/12/28 12:26:17;;;;;;;;;;;;;;;8.51;100.00;98984.88;5009983;28;19926;-74
2021/12/28 12:28:47;;;;;;;;;;;;;;;8.55;100.00;98994.31;5007659;28;19949;-72
2021/12/28 12:31:20;;;;;;;;;;;;;;;8.56;100.00;98997.72;5003632;28;19926;-74
2021/12/28 12:33:45;;;;;;;;;;;;;;;8.55;100.00;99004.56;5004258;28;19968;-73
2021/12/28 12:36:22;;;;;;;;;;;;;;;8.49;100.00;98998.50;5008231;28;19964;-73
2021/12/28 12:38:49;;;;;;;;;;;;;;;8.44;100.00;98995.94;5006797;28;19997;-73
2021/12/28 12:41:14;;;;;;;;;;;;;;;8.45;100.00;99000.22;5007081;28;19918;-74
2021/12/28 12:43:39;;;;;;;;;;;;;;;8.43;100.00;98999.31;5004599;28;20350;-72
2021/12/28 12:46:09;;;;;;;;;;;;;;;8.46;100.00;99004.47;5006729;28;19917;-74
2021/12/28 12:48:38;;;;;;;;;;;;;;;8.55;100.00;99006.22;5009142;28;19918;-73